createdAt,value
2018-02-02T00:02:00.244Z,3.60
2018-02-02T00:04:27.808Z,2.70
2018-02-02T00:06:55.409Z,3.10
2018-02-02T00:09:22.993Z,3.03
2018-02-02T00:11:50.520Z,3.00
2018-02-02T00:14:18.202Z,3.20
2018-02-02T00:16:45.772Z,3.50
2018-02-02T00:19:13.337Z,3.27
2018-02-02T00:21:40.993Z,2.80
2018-02-02T00:24:08.515Z,3.70
2018-02-02T00:26:36.056Z,3.30
2018-02-02T00:29:03.764Z,3.33
2018-02-02T00:31:32.065Z,3.77
2018-02-02T00:34:00.396Z,3.63
2018-02-02T00:36:28.039Z,3.37
2018-02-02T00:38:55.604Z,3.53
2018-02-02T00:41:23.898Z,3.20
2018-02-02T00:43:51.485Z,4.00
2018-02-02T00:46:19.064Z,3.17
2018-02-02T00:48:47.397Z,3.63
2018-02-02T00:51:21.876Z,3.20
2018-02-02T00:53:49.438Z,2.70
2018-02-02T00:56:17.747Z,2.50
2018-02-02T00:58:45.328Z,2.80
2018-02-02T01:01:12.897Z,2.50
2018-02-02T01:03:40.422Z,2.40
2018-02-02T01:06:08.021Z,2.40
2018-02-02T01:08:35.530Z,2.70
2018-02-02T01:11:03.761Z,2.60
2018-02-02T01:13:31.364Z,2.60
2018-02-02T01:15:58.924Z,2.93
2018-02-02T01:18:26.455Z,2.80
2018-02-02T01:20:54.159Z,3.00
2018-02-02T01:23:22.455Z,2.70
2018-02-02T01:25:49.983Z,3.00
2018-02-02T01:28:17.588Z,2.77
2018-02-02T01:30:45.160Z,2.83
2018-02-02T01:33:13.454Z,2.70
2018-02-02T01:35:41.039Z,3.00
2018-02-02T01:38:08.570Z,3.20
2018-02-02T01:40:36.385Z,3.40
2018-02-02T01:43:03.935Z,2.83
2018-02-02T01:45:31.473Z,2.87
2018-02-02T01:48:11.009Z,3.00
2018-02-02T01:50:38.573Z,2.80
2018-02-02T01:53:06.045Z,2.70
2018-02-02T01:55:33.595Z,2.87
2018-02-02T01:58:01.117Z,2.57
2018-02-02T02:00:28.688Z,2.50
2018-02-02T02:02:56.235Z,2.70
2018-02-02T02:05:23.767Z,2.70
2018-02-02T02:07:51.295Z,2.60
2018-02-02T02:10:19.056Z,2.97
2018-02-02T02:12:47.375Z,2.73
2018-02-02T02:15:14.940Z,2.37
2018-02-02T02:17:42.541Z,3.07
2018-02-02T02:20:10.112Z,2.70
2018-02-02T02:22:37.688Z,3.13
2018-02-02T02:25:05.561Z,3.23
2018-02-02T02:27:33.892Z,2.97
2018-02-02T02:30:01.397Z,3.17
2018-02-02T02:32:29.120Z,2.87
2018-02-02T02:34:56.680Z,3.07
2018-02-02T02:37:24.153Z,3.23
2018-02-02T02:39:51.708Z,3.30
2018-02-02T02:42:19.249Z,3.20
2018-02-02T02:44:46.816Z,3.20
2018-02-02T02:47:14.596Z,3.63
2018-02-02T02:49:42.936Z,3.43
2018-02-02T02:52:10.504Z,3.40
2018-02-02T02:54:38.977Z,3.67
2018-02-02T02:57:06.551Z,3.23
2018-02-02T02:59:34.892Z,3.60
2018-02-02T03:02:02.627Z,3.13
2018-02-02T03:04:30.372Z,3.53
2018-02-02T03:06:57.941Z,3.83
2018-02-02T03:09:25.824Z,3.77
2018-02-02T03:11:54.148Z,3.07
2018-02-02T03:14:21.676Z,3.90
2018-02-02T03:16:49.448Z,4.10
2018-02-02T03:19:16.976Z,3.97
2018-02-02T03:21:44.503Z,4.37
2018-02-02T03:24:12.155Z,4.30
2018-02-02T03:26:39.625Z,4.20
2018-02-02T03:29:07.184Z,4.57
2018-02-02T03:31:35.040Z,4.53
2018-02-02T03:34:02.543Z,4.37
2018-02-02T03:36:30.068Z,4.30
2018-02-02T03:38:58.427Z,4.40
2018-02-02T03:41:26.715Z,4.60
2018-02-02T03:43:54.223Z,4.27
2018-02-02T03:46:21.746Z,4.83
2018-02-02T03:48:49.296Z,4.70
2018-02-02T03:51:16.861Z,4.53
2018-02-02T03:53:45.398Z,4.80
2018-02-02T03:56:12.925Z,4.90
2018-02-02T03:58:40.544Z,5.20
2018-02-02T04:01:08.149Z,4.63
2018-02-02T04:03:35.680Z,4.40
2018-02-02T04:06:03.556Z,4.83
2018-02-02T04:08:31.315Z,4.53
2018-02-02T04:10:58.886Z,4.37
2018-02-02T04:13:27.197Z,4.07
2018-02-02T04:15:55.008Z,4.20
2018-02-02T04:18:23.311Z,4.30
2018-02-02T04:20:51.643Z,4.13
2018-02-02T04:23:19.206Z,3.83
2018-02-02T04:25:46.734Z,3.70
2018-02-02T04:28:15.066Z,3.27
2018-02-02T04:30:42.652Z,3.77
2018-02-02T04:33:10.208Z,3.90
2018-02-02T04:35:42.283Z,4.07
2018-02-02T04:38:10.793Z,4.43
2018-02-02T04:40:39.090Z,4.30
2018-02-02T04:43:06.610Z,4.10
2018-02-02T04:45:34.969Z,4.53
2018-02-02T04:48:02.548Z,3.93
2018-02-02T04:50:30.120Z,4.33
2018-02-02T04:52:57.851Z,4.30
2018-02-02T04:55:25.412Z,3.80
2018-02-02T04:57:52.986Z,3.47
2018-02-02T05:00:21.245Z,3.53
2018-02-02T05:02:49.538Z,3.10
2018-02-02T05:05:17.872Z,3.17
2018-02-02T05:07:45.515Z,3.07
2018-02-02T05:10:13.081Z,3.30
2018-02-02T05:12:40.652Z,3.30
2018-02-02T05:15:08.206Z,3.70
2018-02-02T05:17:35.731Z,3.50
2018-02-02T05:20:03.969Z,3.63
2018-02-02T05:22:31.564Z,3.97
2018-02-02T05:24:59.125Z,3.80
2018-02-02T05:27:26.658Z,4.40
2018-02-02T05:29:54.195Z,4.00
2018-02-02T05:32:21.755Z,4.43
2018-02-02T05:34:49.324Z,4.07
2018-02-02T05:37:17.847Z,4.60
2018-02-02T05:39:45.416Z,4.20
2018-02-02T05:42:12.989Z,4.20
2018-02-02T05:44:40.621Z,4.50
2018-02-02T05:47:08.161Z,4.63
2018-02-02T05:49:35.732Z,4.70
2018-02-02T05:52:04.189Z,4.87
2018-02-02T05:54:31.727Z,4.20
2018-02-02T05:56:59.297Z,4.80
2018-02-02T05:59:26.902Z,5.07
2018-02-02T06:01:54.434Z,4.77
2018-02-02T06:04:22.007Z,5.03
2018-02-02T06:06:49.615Z,5.37
2018-02-02T06:09:17.147Z,4.90
2018-02-02T06:11:45.481Z,4.87
2018-02-02T06:14:13.092Z,5.43
2018-02-02T06:16:41.387Z,5.07
2018-02-02T06:19:21.287Z,5.30
2018-02-02T06:21:48.799Z,5.00
2018-02-02T06:24:16.383Z,4.83
2018-02-02T06:26:45.059Z,5.20
2018-02-02T06:29:13.350Z,5.13
2018-02-02T06:31:40.923Z,5.60
2018-02-02T06:34:08.513Z,5.53
2018-02-02T06:36:36.813Z,5.20
2018-02-02T06:39:04.392Z,4.90
2018-02-02T06:41:32.114Z,5.30
2018-02-02T06:43:59.635Z,5.13
2018-02-02T06:46:27.101Z,5.50
2018-02-02T06:48:54.868Z,5.13
2018-02-02T06:51:22.391Z,5.20
2018-02-02T06:53:49.950Z,5.00
2018-02-02T06:56:17.536Z,5.70
2018-02-02T06:58:45.101Z,5.13
2018-02-02T07:01:12.665Z,6.03
2018-02-02T07:03:40.281Z,6.07
2018-02-02T07:06:07.741Z,6.50
2018-02-02T07:08:35.293Z,6.47
2018-02-02T07:11:02.893Z,5.90
2018-02-02T07:13:30.456Z,6.50
2018-02-02T07:15:57.997Z,6.50
2018-02-02T07:18:25.604Z,5.80
2018-02-02T07:20:53.132Z,5.80
2018-02-02T07:23:20.719Z,6.23
2018-02-02T07:25:49.063Z,5.87
2018-02-02T07:28:17.396Z,5.70
2018-02-02T07:30:45.688Z,6.63
2018-02-02T07:33:13.288Z,6.37
2018-02-02T07:35:40.820Z,6.50
2018-02-02T07:38:08.384Z,6.43
2018-02-02T07:40:35.984Z,6.80
2018-02-02T07:43:03.557Z,7.00
2018-02-02T07:45:31.108Z,7.20
2018-02-02T07:47:59.473Z,6.60
2018-02-02T07:50:27.011Z,7.30
2018-02-02T07:52:55.353Z,7.07
2018-02-02T07:55:22.907Z,7.23
2018-02-02T07:57:50.488Z,7.33
2018-02-02T08:00:18.050Z,6.83
2018-02-02T08:02:45.596Z,7.50
2018-02-02T08:05:13.123Z,7.30
2018-02-02T08:07:40.647Z,7.10
2018-02-02T08:10:08.407Z,7.77
2018-02-02T08:12:36.015Z,7.37
2018-02-02T08:15:03.565Z,8.17
2018-02-02T08:17:31.151Z,7.37
2018-02-02T08:19:58.679Z,7.30
2018-02-02T08:22:26.223Z,7.60
2018-02-02T08:24:53.770Z,7.57
2018-02-02T08:27:21.333Z,8.10
2018-02-02T08:29:48.866Z,7.60
2018-02-02T08:32:16.433Z,8.30
2018-02-02T08:34:43.909Z,8.10
2018-02-02T08:37:11.472Z,7.70
2018-02-02T08:39:39.119Z,7.67
2018-02-02T08:42:06.591Z,8.17
2018-02-02T08:44:34.107Z,9.23
2018-02-02T08:47:01.704Z,9.03
2018-02-02T08:49:30.046Z,10.17
2018-02-02T08:51:57.579Z,9.40
2018-02-02T08:54:25.176Z,10.87
2018-02-02T08:56:52.713Z,10.13
2018-02-02T08:59:20.286Z,10.43
2018-02-02T09:01:53.591Z,12.03
2018-02-02T09:04:21.930Z,11.93
2018-02-02T09:06:49.463Z,9.87
2018-02-02T09:09:17.315Z,9.90
2018-02-02T09:11:45.618Z,8.77
2018-02-02T09:14:13.105Z,8.80
2018-02-02T09:16:41.543Z,8.90
2018-02-02T09:19:09.116Z,9.17
2018-02-02T09:21:37.430Z,8.80
2018-02-02T09:24:04.988Z,8.73
2018-02-02T09:26:32.628Z,10.17
2018-02-02T09:29:00.163Z,9.43
2018-02-02T09:31:27.925Z,9.33
2018-02-02T09:33:55.288Z,9.03
2018-02-02T09:36:22.867Z,9.37
2018-02-02T09:38:51.252Z,8.87
2018-02-02T09:41:18.828Z,7.87
2018-02-02T09:43:46.312Z,7.43
2018-02-02T09:46:14.672Z,7.30
2018-02-02T09:48:42.963Z,7.10
2018-02-02T09:51:10.495Z,6.90
2018-02-02T09:53:38.380Z,7.20
2018-02-02T09:56:06.790Z,6.77
2018-02-02T09:58:34.260Z,7.57
2018-02-02T10:01:01.811Z,6.73
2018-02-02T10:03:29.351Z,6.70
2018-02-02T10:05:56.886Z,7.30
2018-02-02T10:08:24.476Z,7.40
2018-02-02T10:10:52.011Z,6.90
2018-02-02T10:13:19.481Z,6.57
2018-02-02T10:15:47.161Z,6.83
2018-02-02T10:18:14.687Z,6.10
2018-02-02T10:20:43.021Z,6.20
2018-02-02T10:23:10.617Z,6.20
2018-02-02T10:25:38.188Z,6.00
2018-02-02T10:28:05.715Z,5.67
2018-02-02T10:30:33.299Z,5.20
2018-02-02T10:33:00.836Z,5.17
2018-02-02T10:35:28.367Z,4.53
2018-02-02T10:37:55.945Z,5.17
2018-02-02T10:40:23.503Z,4.73
2018-02-02T10:42:51.035Z,5.00
2018-02-02T10:45:19.011Z,4.90
2018-02-02T10:47:47.286Z,4.50
2018-02-02T10:50:15.573Z,4.47
2018-02-02T10:52:43.355Z,4.17
2018-02-02T10:55:10.891Z,3.93
2018-02-02T10:57:38.420Z,4.53
2018-02-02T11:00:05.999Z,4.30
2018-02-02T11:02:39.142Z,3.67
2018-02-02T11:05:06.717Z,4.23
2018-02-02T11:07:34.460Z,4.20
2018-02-02T11:10:02.769Z,4.20
2018-02-02T11:12:30.278Z,4.67
2018-02-02T11:14:58.587Z,4.30
2018-02-02T11:17:26.140Z,4.20
2018-02-02T11:19:53.704Z,3.93
2018-02-02T11:22:22.116Z,3.40
2018-02-02T11:24:49.649Z,3.40
2018-02-02T11:27:17.181Z,3.80
2018-02-02T11:29:44.784Z,3.60
2018-02-02T11:32:12.315Z,3.20
2018-02-02T11:34:39.884Z,3.47
2018-02-02T11:37:07.440Z,3.33
2018-02-02T11:39:35.743Z,3.30
2018-02-02T11:42:03.318Z,3.60
2018-02-02T11:44:30.963Z,3.77
2018-02-02T11:46:58.525Z,3.50
2018-02-02T11:49:26.150Z,3.50
2018-02-02T11:51:53.715Z,3.40
2018-02-02T11:54:22.008Z,2.57
2018-02-02T11:56:49.584Z,3.20
2018-02-02T11:59:17.278Z,2.47
2018-02-02T12:01:44.820Z,3.30
2018-02-02T12:04:12.375Z,3.23
2018-02-02T12:06:39.964Z,3.00
2018-02-02T12:09:07.531Z,3.57
2018-02-02T12:11:35.060Z,3.40
2018-02-02T12:14:02.625Z,3.70
2018-02-02T12:16:30.960Z,3.63
2018-02-02T12:18:58.495Z,3.87
2018-02-02T12:21:26.561Z,3.10
2018-02-02T12:24:09.014Z,2.70
2018-02-02T12:26:42.424Z,3.33
2018-02-02T12:29:30.740Z,2.60
2018-02-02T12:32:03.956Z,2.77
2018-02-02T12:34:37.059Z,2.30
2018-02-02T12:37:05.147Z,2.83
2018-02-02T12:39:32.776Z,3.07
2018-02-02T12:42:00.365Z,2.90
2018-02-02T12:44:27.912Z,3.10
2018-02-02T12:46:55.471Z,3.10
2018-02-02T12:49:30.669Z,2.77
2018-02-02T12:51:58.244Z,2.70
2018-02-02T12:54:25.808Z,2.40
2018-02-02T12:56:54.103Z,2.40
2018-02-02T12:59:21.704Z,2.43
2018-02-02T13:01:49.233Z,2.60
2018-02-02T13:04:16.795Z,2.80
2018-02-02T13:06:45.157Z,2.43
2018-02-02T13:09:12.919Z,2.80
2018-02-02T13:11:40.494Z,2.70
2018-02-02T13:14:08.337Z,2.10
2018-02-02T13:16:36.664Z,2.90
2018-02-02T13:19:04.267Z,2.00
2018-02-02T13:21:32.088Z,2.60
2018-02-02T13:24:00.395Z,3.03
2018-02-02T13:26:27.910Z,2.50
2018-02-02T13:28:55.734Z,2.80
2018-02-02T13:31:23.262Z,2.90
2018-02-02T13:33:50.826Z,2.60
2018-02-02T13:36:18.375Z,2.70
2018-02-02T13:38:46.717Z,2.80
2018-02-02T13:41:14.252Z,3.00
2018-02-02T13:43:42.571Z,2.63
2018-02-02T13:46:10.132Z,2.70
2018-02-02T13:48:37.663Z,2.30
2018-02-02T13:51:05.267Z,2.33
2018-02-02T13:53:33.576Z,2.17
2018-02-02T13:56:01.116Z,2.40
2018-02-02T13:58:28.708Z,2.43
2018-02-02T14:00:56.247Z,2.50
2018-02-02T14:03:23.822Z,2.80
2018-02-02T14:05:52.355Z,2.50
2018-02-02T14:08:19.925Z,2.40
2018-02-02T14:10:47.460Z,2.43
2018-02-02T14:13:15.323Z,2.30
2018-02-02T14:15:42.855Z,2.23
2018-02-02T14:18:10.416Z,2.67
2018-02-02T14:20:39.602Z,2.43
2018-02-02T14:23:07.167Z,2.60
2018-02-02T14:25:34.695Z,2.60
2018-02-02T14:28:02.524Z,2.63
2018-02-02T14:30:30.864Z,2.50
2018-02-02T14:32:58.435Z,2.30
2018-02-02T14:35:26.971Z,2.40
2018-02-02T14:37:54.540Z,2.57
2018-02-02T14:40:22.872Z,2.63
2018-02-02T14:42:50.458Z,2.27
2018-02-02T14:45:18.792Z,2.47
2018-02-02T14:47:46.331Z,2.67
2018-02-02T14:50:14.120Z,2.40
2018-02-02T14:52:42.420Z,2.37
2018-02-02T14:55:09.938Z,2.60
2018-02-02T14:57:38.371Z,2.50
2018-02-02T15:00:05.954Z,2.60
2018-02-02T15:02:34.289Z,2.40
2018-02-02T15:05:01.876Z,2.60
2018-02-02T15:07:29.441Z,2.47
2018-02-02T15:09:56.975Z,2.10
2018-02-02T15:12:24.798Z,2.20
2018-02-02T15:14:52.330Z,2.50
2018-02-02T15:17:19.916Z,2.43
2018-02-02T15:19:48.284Z,2.67
2018-02-02T15:22:15.843Z,2.50
2018-02-02T15:24:43.407Z,2.60
2018-02-02T15:27:10.977Z,2.50
2018-02-02T15:29:38.545Z,2.27
2018-02-02T15:32:06.074Z,2.40
2018-02-02T15:34:34.395Z,2.60
2018-02-02T15:37:01.969Z,2.10
2018-02-02T15:39:30.244Z,2.30
2018-02-02T15:41:58.155Z,2.17
2018-02-02T15:44:25.720Z,2.10
2018-02-02T15:46:53.227Z,2.50
2018-02-02T15:49:20.838Z,2.80
2018-02-02T15:51:49.160Z,2.40
2018-02-02T15:54:16.720Z,2.87
2018-02-02T15:56:44.397Z,3.00
2018-02-02T15:59:12.697Z,2.90
2018-02-02T16:01:40.223Z,2.67
2018-02-02T16:04:07.799Z,2.70
2018-02-02T16:06:35.362Z,2.53
2018-02-02T16:09:02.906Z,2.30
2018-02-02T16:11:30.456Z,3.47
2018-02-02T16:13:58.030Z,2.80
2018-02-02T16:16:26.360Z,2.80
2018-02-02T16:18:54.007Z,2.70
2018-02-02T16:21:21.539Z,3.67
2018-02-02T16:23:49.063Z,3.43
2018-02-02T16:26:16.604Z,3.20
2018-02-02T16:28:44.089Z,4.20
2018-02-02T16:31:11.652Z,2.83
2018-02-02T16:33:39.217Z,2.90
2018-02-02T16:36:07.510Z,2.90
2018-02-02T16:38:35.100Z,2.87
2018-02-02T16:41:03.472Z,2.73
2018-02-02T16:43:31.040Z,2.00
2018-02-02T16:45:58.589Z,2.50
2018-02-02T16:48:26.151Z,2.33
2018-02-02T16:50:53.729Z,2.30
2018-02-02T16:53:21.297Z,2.30
2018-02-02T16:55:48.848Z,2.70
2018-02-02T16:58:17.159Z,2.73
2018-02-02T17:00:44.692Z,1.87
2018-02-02T17:03:12.432Z,2.70
2018-02-02T17:05:40.739Z,2.73
2018-02-02T17:08:09.073Z,2.40
2018-02-02T17:10:36.668Z,2.60
2018-02-02T17:13:04.210Z,2.73
2018-02-02T17:15:31.770Z,2.33
2018-02-02T17:17:59.461Z,2.40
2018-02-02T17:20:27.051Z,2.70
2018-02-02T17:22:54.580Z,2.77
2018-02-02T17:25:22.553Z,2.77
2018-02-02T17:27:50.114Z,2.80
2018-02-02T17:30:18.349Z,2.80
2018-02-02T17:32:45.895Z,3.17
2018-02-02T17:35:13.475Z,2.83
2018-02-02T17:37:41.811Z,3.23
2018-02-02T17:40:09.477Z,3.03
2018-02-02T17:42:37.812Z,3.50
2018-02-02T17:45:05.344Z,3.37
2018-02-02T17:47:32.891Z,3.17
2018-02-02T17:50:00.423Z,3.40
2018-02-02T17:52:27.938Z,4.00
2018-02-02T17:54:55.512Z,3.80
2018-02-02T17:57:23.041Z,3.90
2018-02-02T17:59:50.595Z,4.20
2018-02-02T18:02:33.068Z,3.63
2018-02-02T18:05:00.644Z,4.20
2018-02-02T18:07:28.182Z,4.00
2018-02-02T18:09:55.743Z,4.60
2018-02-02T18:12:23.213Z,4.27
2018-02-02T18:14:50.772Z,4.10
2018-02-02T18:17:18.332Z,4.70
2018-02-02T18:19:45.868Z,4.60
2018-02-02T18:22:13.506Z,4.50
2018-02-02T18:24:41.241Z,4.67
2018-02-02T18:27:08.820Z,4.30
2018-02-02T18:29:36.365Z,4.47
2018-02-02T18:32:03.983Z,4.47
2018-02-02T18:34:31.544Z,4.87
2018-02-02T18:36:59.087Z,4.83
2018-02-02T18:39:26.739Z,5.37
2018-02-02T18:41:55.042Z,4.73
2018-02-02T18:44:22.653Z,4.97
2018-02-02T18:46:50.509Z,4.53
2018-02-02T18:49:18.101Z,4.80
2018-02-02T18:51:46.413Z,4.50
2018-02-02T18:54:14.836Z,4.90
2018-02-02T18:56:43.181Z,5.20
2018-02-02T18:59:11.516Z,5.53
2018-02-02T19:01:39.767Z,4.40
2018-02-02T19:04:07.321Z,4.73
2018-02-02T19:06:34.915Z,5.27
2018-02-02T19:09:02.613Z,4.90
2018-02-02T19:11:30.175Z,4.97
2018-02-02T19:13:57.724Z,5.43
2018-02-02T19:16:25.245Z,5.07
2018-02-02T19:18:52.807Z,5.10
2018-02-02T19:21:20.343Z,5.70
2018-02-02T19:23:47.913Z,4.77
2018-02-02T19:26:15.452Z,5.63
2018-02-02T19:28:43.160Z,5.63
2018-02-02T19:31:10.742Z,5.60
2018-02-02T19:33:38.293Z,4.90
2018-02-02T19:36:05.896Z,4.47
2018-02-02T19:38:33.496Z,5.03
2018-02-02T19:41:01.048Z,4.70
2018-02-02T19:43:28.619Z,4.33
2018-02-02T19:45:56.276Z,4.47
2018-02-02T19:48:23.809Z,5.97
2018-02-02T19:50:51.398Z,5.17
2018-02-02T19:53:19.019Z,4.80
2018-02-02T19:55:46.589Z,4.50
2018-02-02T19:58:14.160Z,4.90
2018-02-02T20:00:42.607Z,4.77
2018-02-02T20:03:10.163Z,5.27
2018-02-02T20:05:38.505Z,4.90
2018-02-02T20:08:06.501Z,4.63
2018-02-02T20:10:34.039Z,4.90
2018-02-02T20:13:02.372Z,5.50
2018-02-02T20:15:29.862Z,4.40
2018-02-02T20:17:57.402Z,4.67
2018-02-02T20:20:24.978Z,4.43
2018-02-02T20:22:52.909Z,4.17
2018-02-02T20:25:21.248Z,5.03
2018-02-02T20:27:48.791Z,4.60
2018-02-02T20:30:16.544Z,4.93
2018-02-02T20:32:44.016Z,4.70
2018-02-02T20:35:12.299Z,4.30
2018-02-02T20:37:39.927Z,4.50
2018-02-02T20:40:08.225Z,4.50
2018-02-02T20:42:35.787Z,5.30
2018-02-02T20:45:03.398Z,4.70
2018-02-02T20:47:31.006Z,4.57
2018-02-02T20:49:59.230Z,5.27
2018-02-02T20:52:27.001Z,5.10
2018-02-02T20:54:54.473Z,5.07
2018-02-02T20:57:22.770Z,5.90
2018-02-02T20:59:50.335Z,5.60
2018-02-02T21:02:17.928Z,5.03
2018-02-02T21:04:45.497Z,4.90
2018-02-02T21:07:13.992Z,4.93
2018-02-02T21:09:42.309Z,5.70
2018-02-02T21:12:10.620Z,5.40
2018-02-02T21:14:38.406Z,5.33
2018-02-02T21:17:05.945Z,5.40
2018-02-02T21:19:33.475Z,5.80
2018-02-02T21:22:01.325Z,6.20
2018-02-02T21:24:29.668Z,6.23
2018-02-02T21:26:57.237Z,6.37
2018-02-02T21:29:24.801Z,5.43
2018-02-02T21:31:52.572Z,5.80
2018-02-02T21:34:20.145Z,6.10
2018-02-02T21:36:48.453Z,5.53
2018-02-02T21:39:15.991Z,5.50
2018-02-02T21:41:43.557Z,5.60
2018-02-02T21:44:11.348Z,5.90
2018-02-02T21:46:38.878Z,6.20
2018-02-02T21:49:06.422Z,6.50
2018-02-02T21:51:34.013Z,6.40
2018-02-02T21:54:02.316Z,6.13
2018-02-02T21:56:29.789Z,6.03
2018-02-02T21:58:57.272Z,6.40
2018-02-02T22:01:26.501Z,6.80
2018-02-02T22:03:53.968Z,5.67
2018-02-02T22:06:22.437Z,5.60
2018-02-02T22:08:50.731Z,6.30
2018-02-02T22:11:18.296Z,6.60
2018-02-02T22:13:46.687Z,7.23
2018-02-02T22:16:14.220Z,6.80
2018-02-02T22:18:41.775Z,10.20
2018-02-02T22:21:09.372Z,9.90
2018-02-02T22:23:36.900Z,7.70
2018-02-02T22:26:04.441Z,6.73
2018-02-02T22:28:31.974Z,7.00
2018-02-02T22:30:59.541Z,7.50
2018-02-02T22:33:27.021Z,6.67
2018-02-02T22:35:54.563Z,6.33
2018-02-02T22:38:22.097Z,6.87
2018-02-02T22:40:49.659Z,6.10
2018-02-02T22:43:17.232Z,7.00
2018-02-02T22:45:44.811Z,7.33
2018-02-02T22:48:13.118Z,7.20
2018-02-02T22:50:40.855Z,7.17
2018-02-02T22:53:08.431Z,7.47
2018-02-02T22:55:36.733Z,7.37
2018-02-02T22:58:04.296Z,7.93
2018-02-02T23:00:31.870Z,7.47
2018-02-02T23:03:00.268Z,7.37
2018-02-02T23:05:27.996Z,8.07
2018-02-02T23:07:55.568Z,8.90
2018-02-02T23:10:23.107Z,8.47
2018-02-02T23:12:50.988Z,8.40
2018-02-02T23:15:18.556Z,8.43
2018-02-02T23:17:46.147Z,8.73
2018-02-02T23:20:14.505Z,9.37
2018-02-02T23:22:42.839Z,8.73
2018-02-02T23:25:10.414Z,9.00
2018-02-02T23:27:38.832Z,8.00
2018-02-02T23:30:06.359Z,9.40
2018-02-02T23:32:34.663Z,8.37
2018-02-02T23:35:02.607Z,8.13
2018-02-02T23:37:30.185Z,8.40
2018-02-02T23:39:58.089Z,8.47
2018-02-02T23:42:25.919Z,9.83
2018-02-02T23:44:53.488Z,8.60
2018-02-02T23:47:21.824Z,8.93
2018-02-02T23:49:49.425Z,8.53
2018-02-02T23:52:16.964Z,8.70
2018-02-02T23:54:44.533Z,7.27
2018-02-02T23:57:12.111Z,8.40
2018-02-02T23:59:39.684Z,8.60
